Time;durP1;ratioP1;P1;durP2;ratioP2;P2;SDS_P1;SDS_P2;PMS_P1;PMS_P2;Temp;Humidity;BMP_temperature;BMP_pressure;BME280_temperature;BME280_humidity;BME280_pressure;Samples;Min_cycle;Max_cycle;Signal;HPM_P1;HPM_P2
2021/04/12 00:00:17;;;;;;;;;;;;;;;-1.03;100.00;102335.63;5224631;28;20387;-80
2021/04/12 00:02:48;;;;;;;10.30;4.72;;;;;;;-1.08;100.00;102342.81;5223598;28;19909;-79
2021/04/12 00:05:20;;;;;;;14.07;4.75;;;;;;;-1.13;100.00;102337.72;5224340;28;20094;-78
2021/04/12 00:08:01;;;;;;;14.98;4.55;;;;;;;-1.19;100.00;102345.00;5225982;28;20032;-78
2021/04/12 00:10:40;;;;;;;12.23;4.72;;;;;;;-1.23;100.00;102343.38;5230689;28;20021;-78
2021/04/12 00:13:19;;;;;;;12.98;4.30;;;;;;;-1.26;100.00;102348.72;5229265;28;20081;-78
2021/04/12 00:16:06;;;;;;;16.10;5.55;;;;;;;-1.28;100.00;102348.78;5227781;28;20437;-79
2021/04/12 00:18:50;;;;;;;12.48;5.57;;;;;;;-1.26;100.00;102348.72;5227846;28;20081;-78
2021/04/12 00:21:37;;;;;;;15.38;4.78;;;;;;;-1.25;100.00;102353.09;5227704;28;20017;-78
2021/04/12 00:24:21;;;;;;;15.35;5.90;;;;;;;-1.23;100.00;102354.75;5228036;28;20028;-79
2021/04/12 00:26:58;;;;;;;9.65;4.90;;;;;;;-1.20;100.00;102357.28;5227865;28;20024;-79
2021/04/12 00:29:28;;;;;;;11.57;5.20;;;;;;;-1.16;100.00;102364.16;5227938;28;20024;-79
2021/04/12 00:32:06;;;;;;;18.73;6.28;;;;;;;-1.12;100.00;102359.63;5229727;28;20044;-78
2021/04/12 00:34:48;;;;;;;13.68;5.53;;;;;;;-1.13;100.00;102361.41;5229947;28;20473;-78
2021/04/12 00:37:27;;;;;;;18.05;6.22;;;;;;;-1.13;100.00;102358.78;5227947;28;20059;-78
2021/04/12 00:40:09;;;;;;;13.10;5.50;;;;;;;-1.12;100.00;102363.13;5225998;28;20459;-78
2021/04/12 00:43:01;;;;;;;15.43;5.07;;;;;;;-1.13;100.00;102366.69;5226739;28;20398;-79
2021/04/12 00:45:43;;;;;;;17.90;6.80;;;;;;;-1.14;100.00;102366.75;5227508;28;20059;-79
2021/04/12 00:48:35;;;;;;;13.75;5.18;;;;;;;-1.17;100.00;102372.97;5225381;28;20031;-79
2021/04/12 00:51:28;;;;;;;16.30;6.30;;;;;;;-1.22;100.00;102371.41;5223159;28;20083;-78
2021/04/12 00:54:04;;;;;;;12.30;5.93;;;;;;;-1.24;100.00;102375.88;5227280;28;20518;-79
2021/04/12 00:56:54;;;;;;;15.63;5.55;;;;;;;-1.27;100.00;102375.97;5227355;28;20029;-78
2021/04/12 00:59:47;;;;;;;13.30;5.22;;;;;;;-1.29;100.00;102376.03;5226378;28;20028;-78
2021/04/12 01:02:37;;;;;;;22.63;6.50;;;;;;;-1.35;100.00;102382.38;5227230;28;20382;-79
2021/04/12 01:05:10;;;;;;;15.25;6.15;;;;;;;-1.40;100.00;102379.06;5227764;28;20155;-79
2021/04/12 01:07:58;;;;;;;24.83;9.00;;;;;;;-1.46;100.00;102381.88;5206705;28;20394;-79
2021/04/12 01:10:43;;;;;;;29.63;11.07;;;;;;;-1.48;100.00;102378.44;5222557;28;20028;-79
2021/04/12 01:13:39;;;;;;;31.38;11.70;;;;;;;-1.49;100.00;102392.50;5231656;28;20436;-78
2021/04/12 01:16:26;;;;;;;28.15;10.95;;;;;;;-1.48;100.00;102394.22;5230598;28;20039;-78
2021/04/12 01:19:11;;;;;;;;;;;;;;;-1.48;100.00;102393.38;5231338;28;20057;-78
2021/04/12 01:22:33;;;;;;;38.80;15.10;;;;;;;-1.54;100.00;102394.44;5231310;28;19962;-78
2021/04/12 01:25:36;;;;;;;57.25;19.42;;;;;;;-1.59;100.00;102399.84;5230959;28;20029;-78
2021/04/12 01:28:42;;;;;;;38.17;13.20;;;;;;;-1.62;100.00;102399.09;5231121;28;20047;-76
2021/04/12 01:31:47;;;;;;;35.13;13.20;;;;;;;-1.68;100.00;102397.50;5221065;28;20037;-79
2021/04/12 01:34:23;;;;;;;28.75;10.43;;;;;;;-1.70;100.00;102399.34;5217436;28;20025;-79
2021/04/12 01:36:54;;;;;;;20.60;7.72;;;;;;;-1.65;100.00;102404.47;5226501;28;20029;-79
2021/04/12 01:39:45;;;;;;;19.83;7.85;;;;;;;-1.64;100.00;102401.78;5229247;28;20093;-80
2021/04/12 01:42:25;;;;;;;18.20;7.25;;;;;;;-1.60;100.00;102399.91;5230127;28;20078;-79
2021/04/12 01:45:13;;;;;;;20.40;7.05;;;;;;;-1.62;100.00;102399.09;5230904;28;20158;-79
2021/04/12 01:47:59;;;;;;;13.45;6.22;;;;;;;-1.64;100.00;102395.66;5230627;28;20425;-79
2021/04/12 01:50:49;;;;;;;22.63;7.13;;;;;;;-1.66;100.00;102402.72;5224109;28;20029;-79
2021/04/12 01:53:46;;;;;;;18.88;6.45;;;;;;;-1.71;100.00;102400.22;5221847;28;20028;-78
2021/04/12 01:56:18;;;;;;;14.00;6.20;;;;;;;-1.72;100.00;102410.81;5226406;28;20029;-79
2021/04/12 01:59:09;;;;;;;14.02;5.75;;;;;;;-1.72;100.00;102408.19;5226200;28;20021;-80
2021/04/12 02:01:58;;;;;;;15.32;5.25;;;;;;;-1.69;100.00;102406.31;5226169;28;20540;-79
2021/04/12 02:04:39;;;;;;;9.88;5.38;;;;;;;-1.72;100.00;102413.44;5226131;28;20059;-79
2021/04/12 02:07:30;;;;;;;12.73;5.15;;;;;;;-1.75;100.00;102413.56;5226159;28;20416;-79
2021/04/12 02:10:09;;;;;;;10.90;5.28;;;;;;;-1.80;100.00;102415.47;5225858;28;20021;-79
2021/04/12 02:13:03;;;;;;;9.70;5.07;;;;;;;-1.82;100.00;102416.38;5226139;28;20029;-80
2021/04/12 02:15:41;;;;;;;15.07;5.95;;;;;;;-1.75;100.00;102424.09;5226021;28;20036;-79
2021/04/12 02:18:42;;;;;;;18.30;6.47;;;;;;;-1.70;100.00;102425.66;5226096;28;20060;-79
2021/04/12 02:21:25;;;;;;;19.58;5.75;;;;;;;-1.68;100.00;102420.34;5225772;28;20074;-79
2021/04/12 02:24:05;;;;;;;13.52;4.95;;;;;;;-1.70;100.00;102427.44;5225881;28;20032;-79
2021/04/12 02:26:47;;;;;;;18.70;6.25;;;;;;;-1.71;100.00;102428.31;5226239;28;20017;-79
2021/04/12 02:29:24;;;;;;;14.55;5.32;;;;;;;-1.68;100.00;102436.13;5225200;28;20025;-79
2021/04/12 02:32:07;;;;;;;15.30;6.40;;;;;;;-1.67;100.00;102432.56;5227262;28;20377;-79
2021/04/12 02:34:51;;;;;;;17.92;6.60;;;;;;;-1.65;100.00;102436.03;5225596;28;20144;-79
2021/04/12 02:37:49;;;;;;;14.70;6.43;;;;;;;-1.67;100.00;102438.69;5225635;28;20049;-79
2021/04/12 02:40:38;;;;;;;19.13;5.35;;;;;;;-1.69;100.00;102434.41;5225526;28;20527;-79
2021/04/12 02:43:24;;;;;;;20.98;6.40;;;;;;;-1.69;100.00;102435.28;5225494;28;20367;-79
2021/04/12 02:46:02;;;;;;;17.88;5.90;;;;;;;-1.73;100.00;102443.31;5225504;28;20394;-80
2021/04/12 02:48:41;;;;;;;17.95;7.53;;;;;;;-1.75;100.00;102445.13;5220415;28;20104;-79
2021/04/12 02:51:25;;;;;;;16.50;6.82;;;;;;;-1.74;100.00;102449.50;5224351;28;20054;-79
2021/04/12 02:54:03;;;;;;;15.00;7.13;;;;;;;-1.76;100.00;102444.25;5232289;28;20025;-78
2021/04/12 02:56:59;;;;;;;18.33;7.25;;;;;;;-1.79;100.00;102451.41;5224131;28;20440;-79
2021/04/12 02:59:52;;;;;;;12.60;6.07;;;;;;;-1.83;100.00;102459.38;5230236;28;20028;-78
2021/04/12 03:02:45;;;;;;;13.57;6.20;;;;;;;-1.88;100.00;102456.03;5232277;28;20133;-78
2021/04/12 03:05:34;;;;;;;13.73;5.70;;;;;;;-1.91;100.00;102456.13;5234078;28;20021;-78
2021/04/12 03:09:00;;;;;;;13.00;5.82;;;;;;;-1.90;100.00;102460.47;5221368;28;20107;-79
2021/04/12 03:11:49;;;;;;;13.35;6.20;;;;;;;-1.83;100.00;102471.66;5218560;28;20024;-78
2021/04/12 03:14:25;;;;;;;14.10;6.85;;;;;;;-1.72;100.00;102473.97;5230196;28;20056;-78
2021/04/12 03:17:09;;;;;;;13.95;6.22;;;;;;;-1.68;100.00;102468.56;5229779;28;20482;-77
2021/04/12 03:20:19;;;;;;;14.05;6.53;;;;;;;-1.61;100.00;102485.00;5229719;28;20049;-79
2021/04/12 03:23:09;;;;;;;14.98;5.70;;;;;;;-1.59;100.00;102473.53;5225766;28;20025;-78
2021/04/12 03:25:58;;;;;;;13.43;5.50;;;;;;;-1.57;100.00;102466.44;5211815;28;20037;-78
2021/04/12 03:28:50;;;;;;;21.42;6.95;;;;;;;-1.54;100.00;102473.41;5224386;28;20466;-78
2021/04/12 03:31:47;;;;;;;19.83;7.72;;;;;;;-1.54;100.00;102469.91;5225596;28;20037;-78
2021/04/12 03:34:23;;;;;;;13.98;8.10;;;;;;;-1.59;100.00;102467.41;5229216;28;20025;-78
2021/04/12 03:37:11;;;;;;;21.42;8.80;;;;;;;-1.65;100.00;102468.47;5229296;28;20028;-78
2021/04/12 03:40:06;;;;;;;18.13;8.05;;;;;;;-1.69;100.00;102476.53;5227943;28;20078;-78
2021/04/12 03:43:09;;;;;;;21.38;8.73;;;;;;;-1.72;100.00;102481.88;5227612;28;20036;-78
2021/04/12 03:46:02;;;;;;;27.20;10.07;;;;;;;-1.71;100.00;102483.56;5219485;28;20393;-78
2021/04/12 03:48:39;;;;;;;35.47;12.25;;;;;;;-1.66;100.00;102489.56;5223883;28;20014;-78
2021/04/12 03:51:41;;;;;;;21.60;8.98;;;;;;;-1.58;100.00;102490.19;5224822;28;20494;-79
2021/04/12 03:54:23;;;;;;;23.17;8.70;;;;;;;-1.51;100.00;102489.06;5235268;28;20025;-78
2021/04/12 03:57:01;;;;;;;17.40;7.95;;;;;;;-1.51;100.00;102485.59;5214246;28;20037;-78
2021/04/12 03:59:32;;;;;;;14.18;6.95;;;;;;;-1.52;100.00;102489.13;5226160;28;20433;-79
2021/04/12 04:02:28;;;;;;;22.10;7.65;;;;;;;-1.47;100.00;102495.97;5225262;28;20063;-79
2021/04/12 04:05:00;;;;;;;24.88;8.20;;;;;;;-1.36;100.00;102498.25;5206816;28;20061;-78
2021/04/12 04:07:53;;;;;;;13.38;6.45;;;;;;;-1.29;100.00;102497.16;5225264;28;20059;-79
2021/04/12 04:10:55;;;;;;;18.70;6.70;;;;;;;-1.24;100.00;102500.50;5228027;28;20042;-78
2021/04/12 04:13:38;;;;;;;21.48;9.00;;;;;;;-1.15;100.00;102508.13;5228332;28;20029;-78
2021/04/12 04:16:27;;;;;;;22.63;7.15;;;;;;;-1.11;100.00;102517.63;5215818;28;20056;-81
2021/04/12 04:19:11;;;;;;;18.35;7.07;;;;;;;-1.14;100.00;102511.59;5227857;28;20036;-78
2021/04/12 04:21:56;;;;;;;20.52;9.00;;;;;;;-1.17;100.00;102511.69;5227653;28;20021;-78
2021/04/12 04:24:57;;;;;;;25.55;10.77;;;;;;;-1.20;100.00;102509.19;5228183;28;20496;-80
2021/04/12 04:27:47;;;;;;;29.98;12.63;;;;;;;-1.20;100.00;102511.81;5215316;28;20161;-78
2021/04/12 04:30:25;;;;;;;31.08;11.20;;;;;;;-1.18;100.00;102509.97;5227573;28;20032;-79
2021/04/12 04:33:08;;;;;;;32.97;11.30;;;;;;;-1.20;100.00;102502.13;5228130;28;20044;-78
2021/04/12 04:35:51;;;;;;;25.83;12.38;;;;;;;-1.15;100.00;102515.16;5233776;28;20052;-78
2021/04/12 04:38:51;;;;;;;27.13;12.07;;;;;;;-1.13;100.00;102510.69;5233071;28;20037;-79
2021/04/12 04:41:42;;;;;;;38.90;18.13;;;;;;;-1.12;100.00;102515.91;5231795;28;20033;-79
2021/04/12 04:44:17;;;;;;;25.63;14.02;;;;;;;-1.14;100.00;102519.50;5228061;28;20031;-79
2021/04/12 04:47:05;;;;;;;21.83;10.43;;;;;;;-1.21;100.00;102521.47;5227609;28;20032;-78
2021/04/12 04:49:42;;;;;;;26.05;10.15;;;;;;;-1.23;100.00;102527.72;5227464;28;20025;-79
2021/04/12 04:52:37;;;;;;;20.33;9.60;;;;;;;-1.27;100.00;102529.56;5231019;28;20056;-78
2021/04/12 04:55:27;;;;;;;20.08;8.82;;;;;;;-1.36;100.00;102533.34;5228004;28;20115;-78
2021/04/12 04:58:08;;;;;;;26.20;9.90;;;;;;;-1.40;100.00;102542.28;5227248;28;20055;-78
2021/04/12 05:00:53;;;;;;;14.13;7.78;;;;;;;-1.40;100.00;102542.28;5226408;28;20416;-79
2021/04/12 05:04:01;;;;;;;20.75;7.72;;;;;;;-1.41;100.00;102558.09;5227152;28;20444;-78
2021/04/12 05:06:58;;;;;;;22.85;8.05;;;;;;;-1.40;100.00;102558.06;5227477;28;20078;-77
2021/04/12 05:09:42;;;;;;;18.58;8.63;;;;;;;-1.33;100.00;102559.59;5226782;28;20108;-78
2021/04/12 05:12:29;;;;;;;22.92;10.35;;;;;;;-1.27;100.00;102563.81;5227029;28;20018;-78
2021/04/12 05:15:16;;;;;;;18.05;9.10;;;;;;;-1.20;100.00;102564.50;5227235;28;20460;-80
2021/04/12 05:18:25;;;;;;;20.80;8.30;;;;;;;-1.16;100.00;102574.84;5215396;28;20017;-78
2021/04/12 05:21:34;;;;;;;21.98;8.27;;;;;;;-1.12;100.00;102573.84;5222331;28;20040;-77
2021/04/12 05:24:53;;;;;;;21.88;9.95;;;;;;;-1.05;100.00;102585.06;5227934;28;20478;-79
2021/04/12 05:28:02;;;;;;;23.45;10.88;;;;;;;-0.93;100.00;102587.28;5217655;28;20063;-79
2021/04/12 05:30:34;;;;;;;20.42;9.52;;;;;;;-0.82;100.00;102584.31;5225599;28;20021;-76
2021/04/12 05:33:14;;;;;;;19.05;9.15;;;;;;;-0.76;100.00;102594.63;5232318;28;20029;-77
2021/04/12 05:35:54;;;;;;;21.90;9.55;;;;;;;-0.75;100.00;102598.13;5231905;28;20029;-77
2021/04/12 05:38:57;;;;;;;29.85;11.43;;;;;;;-0.64;100.00;102596.03;5230859;28;20032;-77
2021/04/12 05:42:07;;;;;;;34.88;16.38;;;;;;;-0.45;100.00;102604.16;5232152;28;20020;-78
2021/04/12 05:44:52;;;;;;;83.30;35.35;;;;;;;-0.29;100.00;102603.59;5226118;28;20067;-78
2021/04/12 05:47:31;;;;;;;70.47;34.45;;;;;;;-0.10;100.00;102598.53;5226333;28;20025;-78
2021/04/12 05:50:11;;;;;;;85.20;40.78;;;;;;;0.48;100.00;102603.41;5226466;28;20481;-76
2021/04/12 05:52:55;;;;;;;62.33;31.02;;;;;;;1.83;100.00;102608.50;5227884;28;20040;-77
2021/04/12 05:55:57;;;;;;;38.58;16.60;;;;;;;3.29;100.00;102608.72;5226377;28;20383;-77
2021/04/12 05:58:41;;;;;;;25.65;15.05;;;;;;;4.65;100.00;102617.50;5215688;28;20394;-77
2021/04/12 06:01:34;;;;;;;21.92;10.63;;;;;;;5.08;100.00;102615.97;5225975;28;20024;-78
2021/04/12 06:04:33;;;;;;;16.15;8.32;;;;;;;6.07;100.00;102617.22;5225911;28;20029;-78
2021/04/12 06:07:40;;;;;;;14.57;6.65;;;;;;;5.49;100.00;102614.50;5222033;28;20068;-78
2021/04/12 06:10:30;;;;;;;15.52;5.15;;;;;;;4.39;100.00;102618.94;5224323;28;20032;-78
2021/04/12 06:13:08;;;;;;;14.07;4.93;;;;;;;3.49;100.00;102616.53;5224746;28;20025;-79
2021/04/12 06:16:08;;;;;;;12.10;5.07;;;;;;;2.85;100.00;102619.69;5224757;28;20526;-78
2021/04/12 06:18:51;;;;;;;86.28;32.40;;;;;;;2.57;100.00;102618.34;5224606;28;20036;-77
2021/04/12 06:21:27;;;;;;;84.25;33.05;;;;;;;2.53;100.00;102608.81;5226571;28;20032;-79
2021/04/12 06:24:19;;;;;;;75.85;27.50;;;;;;;2.31;100.00;102613.41;5225106;28;20025;-79
2021/04/12 06:27:14;;;;;;;32.58;13.98;;;;;;;2.26;100.00;102620.66;5226699;28;20060;-78
2021/04/12 06:29:54;;;;;;;24.65;12.05;;;;;;;2.16;100.00;102624.66;5223207;28;20043;-79
2021/04/12 06:33:03;;;;;;;44.10;23.15;;;;;;;2.05;100.00;102625.13;5226014;28;20033;-79
2021/04/12 06:36:11;;;;;;;23.95;11.50;;;;;;;1.95;100.00;102639.72;5225316;28;20021;-79
2021/04/12 06:39:14;;;;;;;14.57;5.93;;;;;;;1.94;100.00;102641.50;5224056;28;20123;-78
2021/04/12 06:42:18;;;;;;;11.07;5.50;;;;;;;1.97;100.00;102643.16;5225191;28;20477;-81
2021/04/12 06:45:09;;;;;;;11.35;6.55;;;;;;;1.98;100.00;102645.75;5216891;28;20036;-80
2021/04/12 06:48:17;;;;;;;12.85;4.85;;;;;;;2.07;100.00;102649.78;5224346;28;20039;-78
2021/04/12 06:51:21;;;;;;;4.93;2.17;;;;;;;2.23;100.00;102649.97;5218635;28;20017;-78
2021/04/12 06:54:28;;;;;;;6.32;3.15;;;;;;;2.36;100.00;102648.50;5227936;28;20032;-77
2021/04/12 06:57:03;;;;;;;6.28;2.80;;;;;;;2.57;100.00;102652.81;5231979;28;20105;-78
2021/04/12 06:59:59;;;;;;;3.72;2.47;;;;;;;2.75;100.00;102661.69;5227462;28;20091;-81
2021/04/12 07:02:52;;;;;;;9.63;3.33;;;;;;;2.95;100.00;102658.09;5229139;28;20501;-78
2021/04/12 07:05:43;;;;;;;8.23;2.75;;;;;;;3.13;100.00;102666.13;5228262;28;20441;-78
2021/04/12 07:08:22;;;;;;;5.38;2.17;;;;;;;3.23;100.00;102660.28;5222558;28;20031;-79
2021/04/12 07:11:14;;;;;;;3.92;1.83;;;;;;;3.34;100.00;102676.53;5217068;28;20052;-79
2021/04/12 07:14:10;;;;;;;4.40;2.05;;;;;;;3.53;100.00;102675.63;5222034;28;20025;-79
2021/04/12 07:17:10;;;;;;;4.13;2.42;;;;;;;3.74;100.00;102681.66;5224127;28;20040;-77
2021/04/12 07:19:56;;;;;;;5.38;2.58;;;;;;;3.91;100.00;102681.66;5232051;28;20021;-78
2021/04/12 07:22:46;;;;;;;10.00;2.30;;;;;;;3.98;100.00;102691.03;5229907;28;20025;-77
2021/04/12 07:25:40;;;;;;;4.03;2.45;;;;;;;3.94;100.00;102684.16;5228853;28;20051;-79
2021/04/12 07:28:33;;;;;;;6.53;2.33;;;;;;;3.98;100.00;102692.84;5218955;28;20056;-78
2021/04/12 07:31:41;;;;;;;4.10;1.73;;;;;;;4.14;100.00;102694.63;5223523;28;20102;-78
2021/04/12 07:34:39;;;;;;;7.80;3.58;;;;;;;4.36;100.00;102689.03;5225779;28;20013;-78
2021/04/12 07:37:34;;;;;;;10.65;3.97;;;;;;;4.54;100.00;102684.53;5234197;28;20039;-78
2021/04/12 07:40:21;;;;;;;20.47;9.30;;;;;;;4.86;100.00;102698.75;5228692;28;20486;-80
2021/04/12 07:43:00;;;;;;;11.68;3.75;;;;;;;4.90;100.00;102694.97;5228371;28;20033;-80
2021/04/12 07:46:13;;;;;;;7.60;3.58;;;;;;;5.09;100.00;102689.50;5230310;28;20029;-83
2021/04/12 07:48:51;;;;;;;9.63;2.70;;;;;;;5.32;100.00;102692.66;5211743;28;20014;-80
2021/04/12 07:51:37;;;;;;;8.93;3.22;;;;;;;5.28;100.00;102699.97;5225718;28;20514;-79
2021/04/12 07:55:06;;;;;;;6.95;2.42;;;;;;;5.44;100.00;102695.50;5231337;28;20040;-78
2021/04/12 07:58:10;;;;;;;6.32;2.78;;;;;;;5.44;100.00;102699.97;5228421;28;20127;-79
2021/04/12 08:01:13;;;;;;;9.48;2.20;;;;;;;5.64;100.00;102704.13;5221925;28;20064;-81
2021/04/12 08:04:04;;;;;;;4.97;2.47;;;;;;;5.71;100.00;102702.81;5226619;28;20025;-78
2021/04/12 08:07:23;;;;;;;7.75;2.63;;;;;;;5.87;100.00;102698.34;5214797;28;20033;-80
2021/04/12 08:10:12;;;;;;;5.50;2.58;;;;;;;5.91;100.00;102698.97;5215018;28;20017;-81
2021/04/12 08:13:21;;;;;;;5.95;2.22;;;;;;;5.97;100.00;102709.31;5226943;28;20043;-80
2021/04/12 08:16:23;;;;;;;4.78;2.15;;;;;;;6.12;100.00;102711.06;5231674;28;20032;-78
2021/04/12 08:19:07;;;;;;;7.10;2.47;;;;;;;6.20;100.00;102711.47;5226715;28;20029;-78
2021/04/12 08:22:14;;;;;;;5.97;2.55;;;;;;;6.34;100.00;102710.63;5228159;28;20056;-80
2021/04/12 08:25:05;;;;;;;5.03;2.40;;;;;;;6.79;100.00;102708.75;5223093;28;20506;-79
2021/04/12 08:27:51;;;;;;;6.30;2.00;;;;;;;7.15;100.00;102704.69;5223468;28;20059;-80
2021/04/12 08:30:34;;;;;;;5.60;1.83;;;;;;;7.52;100.00;102708.47;5227967;28;20437;-82
2021/04/12 08:33:59;;;;;;;4.35;1.65;;;;;;;7.49;100.00;102698.88;5228967;28;20045;-79
2021/04/12 08:36:44;;;;;;;6.00;2.20;;;;;;;7.30;100.00;102709.03;5233554;28;20053;-80
2021/04/12 08:39:48;;;;;;;12.02;3.33;;;;;;;7.07;100.00;102715.00;5231436;28;20029;-80
2021/04/12 08:42:38;;;;;;;18.08;7.32;;;;;;;7.15;100.00;102716.22;5226974;28;20539;-79
2021/04/12 08:45:20;;;;;;;17.38;7.53;;;;;;;7.58;100.00;102724.13;5215232;28;20454;-79
2021/04/12 08:48:21;;;;;;;8.65;2.85;;;;;;;7.67;100.00;102723.50;5232236;28;20508;-79
2021/04/12 08:51:03;;;;;;;5.07;1.85;;;;;;;7.45;100.00;102717.88;5226638;28;20021;-82
2021/04/12 08:53:45;;;;;;;6.10;1.80;;;;;;;7.67;100.00;102720.81;5235364;28;20048;-81
2021/04/12 08:56:30;;;;;;;34.78;11.07;;;;;;;7.65;100.00;102717.41;5235359;28;20029;-78
2021/04/12 08:59:38;;;;;;;33.55;10.68;;;;;;;7.49;100.00;102722.91;5232141;28;20112;-78
2021/04/12 09:02:40;;;;;;;10.70;4.07;;;;;;;7.44;100.00;102716.16;5234936;28;20044;-79
2021/04/12 09:05:34;;;;;;;21.17;6.60;;;;;;;7.65;100.00;102712.06;5230457;28;20059;-77
2021/04/12 09:08:09;;;;;;;8.85;3.60;;;;;;;8.06;100.00;102719.13;5218113;28;20017;-78
2021/04/12 09:11:01;;;;;;;4.65;1.63;;;;;;;8.31;100.00;102712.94;5237464;28;20063;-78
2021/04/12 09:13:40;;;;;;;6.25;2.28;;;;;;;8.52;100.00;102719.50;5232017;28;20036;-80
2021/04/12 09:16:27;;;;;;;9.45;2.58;;;;;;;8.34;100.00;102718.09;5226255;28;20448;-79
2021/04/12 09:19:16;;;;;;;5.88;2.28;;;;;;;8.27;100.00;102720.31;5229588;28;20452;-79
2021/04/12 09:22:17;;;;;;;11.20;2.42;;;;;;;8.33;100.00;102727.03;5228499;28;20118;-78
2021/04/12 09:25:25;;;;;;;10.48;2.20;;;;;;;8.56;100.00;102723.66;5227283;28;20530;-80
2021/04/12 09:27:56;;;;;;;4.78;2.33;;;;;;;8.30;81.66;102725.47;5225872;28;20043;-79
2021/04/12 09:30:31;;;;;;;5.63;2.30;;;;;;;8.23;89.98;102720.63;5226370;28;20017;-80
2021/04/12 09:33:20;;;;;;;;;;;;;;;8.22;98.11;102724.25;5228675;28;20486;-79
2021/04/12 09:36:08;;;;;;;6.50;2.17;;;;;;;8.71;72.44;102721.75;5225881;28;19952;-79
2021/04/12 09:38:38;;;;;;;13.27;6.00;;;;;;;8.83;59.92;102728.03;5225333;28;20550;-80
2021/04/12 09:41:10;;;;;;;5.65;2.30;;;;;;;8.42;67.00;102729.13;5225085;28;20112;-79
2021/04/12 09:43:57;;;;;;;4.82;2.53;;;;;;;7.91;64.27;102736.19;5226632;28;20389;-79
2021/04/12 09:46:43;;;;;;;5.82;2.58;;;;;;;7.85;67.58;102764.19;5227067;28;20037;-79
2021/04/12 09:49:15;;;;;;;5.50;2.15;;;;;;;6.54;100.00;102769.88;5215667;28;20355;-79
2021/04/12 09:51:55;;;;;;;6.22;2.15;;;;;;;5.31;100.00;102770.78;5227262;28;20064;-79
2021/04/12 09:55:01;;;;;;;4.72;1.88;;;;;;;4.43;100.00;102789.72;5228609;28;20035;-78
2021/04/12 09:57:51;;;;;;;4.63;2.35;;;;;;;3.84;100.00;102776.72;5231043;28;20025;-80
2021/04/12 10:00:35;;;;;;;4.78;2.30;;;;;;;3.25;100.00;102790.19;5228503;28;20036;-80
2021/04/12 10:03:35;;;;;;;4.07;2.17;;;;;;;2.60;100.00;102786.94;5230371;28;20035;-78
2021/04/12 10:06:24;;;;;;;4.20;2.60;;;;;;;2.23;100.00;102783.22;5229840;28;20032;-76
2021/04/12 10:09:20;;;;;;;7.43;3.08;;;;;;;2.15;100.00;102803.88;5229674;28;20037;-75
2021/04/12 10:12:03;;;;;;;11.32;3.55;;;;;;;2.10;100.00;102804.97;5231036;28;20028;-77
2021/04/12 10:14:44;;;;;;;6.55;3.75;;;;;;;1.98;100.00;102812.50;5233961;28;20040;-76
2021/04/12 10:17:23;;;;;;;6.75;3.25;;;;;;;2.05;100.00;102829.84;5234222;28;20028;-78
2021/04/12 10:19:58;;;;;;;5.88;3.58;;;;;;;2.05;100.00;102829.00;5227476;28;20031;-76
2021/04/12 10:22:50;;;;;;;7.70;4.45;;;;;;;2.16;100.00;102836.50;5230753;28;20478;-80
2021/04/12 10:25:35;;;;;;;10.05;4.07;;;;;;;2.12;100.00;102843.72;5230958;28;20064;-80
2021/04/12 10:28:10;;;;;;;10.27;4.45;;;;;;;1.99;100.00;102835.41;5229180;28;20021;-77
2021/04/12 10:30:42;;;;;;;;;;;;;;;1.74;100.00;102835.53;5227588;28;20037;-81
2021/04/12 10:33:22;;;;;;;7.78;4.22;;;;;;;1.59;100.00;102830.84;5231115;28;19944;-78
2021/04/12 10:35:59;;;;;;;7.03;4.25;;;;;;;1.76;100.00;102820.47;5234811;28;20047;-79
2021/04/12 10:38:33;;;;;;;10.68;4.68;;;;;;;2.11;100.00;102823.47;5235443;28;20032;-78
2021/04/12 10:41:23;;;;;;;30.35;19.63;;;;;;;2.30;100.00;102834.16;5231299;28;20369;-81
2021/04/12 10:44:00;;;;;;;26.30;15.27;;;;;;;2.34;100.00;102826.00;5227058;28;20420;-79
2021/04/12 10:46:42;;;;;;;11.88;6.22;;;;;;;2.34;100.00;102836.59;5235724;28;20389;-80
2021/04/12 10:49:22;;;;;;;19.58;6.57;;;;;;;2.25;100.00;102830.81;5220509;28;20030;-78
2021/04/12 10:52:01;;;;;;;12.90;6.32;;;;;;;2.42;100.00;102828.34;5229511;28;20393;-78
2021/04/12 10:54:43;;;;;;;65.57;21.38;;;;;;;2.38;100.00;102826.75;5230125;28;20033;-80
2021/04/12 10:57:17;;;;;;;52.08;18.35;;;;;;;2.50;100.00;102830.66;5230418;28;20498;-80
2021/04/12 10:59:52;;;;;;;27.42;11.93;;;;;;;2.68;100.00;102829.88;5217672;28;20033;-76
2021/04/12 11:02:30;;;;;;;17.90;7.50;;;;;;;2.91;100.00;102835.94;5231522;28;20017;-78
2021/04/12 11:05:05;;;;;;;18.85;9.30;;;;;;;3.03;100.00;102838.06;5236597;28;20032;-78
2021/04/12 11:07:48;;;;;;;14.55;7.75;;;;;;;2.94;100.00;102827.84;5238538;28;20025;-79
2021/04/12 11:10:23;;;;;;;14.68;6.75;;;;;;;3.18;100.00;102825.91;5239174;28;20025;-78
2021/04/12 11:13:01;;;;;;;14.45;8.25;;;;;;;3.28;100.00;102817.44;5240290;28;20025;-78
2021/04/12 11:16:01;;;;;;;14.98;6.22;;;;;;;3.56;100.00;102819.63;5227169;28;20025;-78
2021/04/12 11:18:43;;;;;;;11.48;6.65;;;;;;;3.86;100.00;102819.97;5237505;28;20033;-79
2021/04/12 11:21:21;;;;;;;11.88;5.82;;;;;;;4.32;100.00;102822.16;5237757;28;20036;-79
2021/04/12 11:24:06;;;;;;;11.45;5.05;;;;;;;4.55;100.00;102820.97;5237269;28;20061;-78
2021/04/12 11:26:39;;;;;;;10.80;5.18;;;;;;;5.19;100.00;102818.44;5236960;28;20394;-79
2021/04/12 11:29:25;;;;;;;8.02;4.63;;;;;;;5.49;100.00;102819.50;5234819;28;20041;-77
2021/04/12 11:32:25;;;;;;;7.38;4.47;;;;;;;5.47;100.00;102832.88;5237872;28;20025;-78
2021/04/12 11:35:07;;;;;;;9.32;5.95;;;;;;;5.46;100.00;102818.69;5236834;28;20119;-77
2021/04/12 11:37:41;;;;;;;12.73;5.72;;;;;;;5.69;100.00;102813.91;5235120;28;20055;-77
2021/04/12 11:40:21;;;;;;;9.15;4.72;;;;;;;6.01;100.00;102821.91;5231528;28;20021;-77
2021/04/12 11:42:56;;;;;;;8.43;5.35;;;;;;;6.20;100.00;102823.41;5228596;28;20034;-76
2021/04/12 11:45:43;;;;;;;7.40;4.43;;;;;;;6.38;100.00;102826.81;5226160;28;20032;-77
2021/04/12 11:48:19;;;;;;;8.60;4.80;;;;;;;6.51;100.00;102810.91;5207911;28;20056;-79
2021/04/12 11:51:05;;;;;;;12.80;7.43;;;;;;;6.67;100.00;102829.50;5224097;28;20041;-78
2021/04/12 11:53:46;;;;;;;7.63;5.00;;;;;;;6.76;100.00;102834.31;5222701;28;20017;-79
2021/04/12 11:56:30;;;;;;;9.13;5.00;;;;;;;7.23;100.00;102819.84;5208573;28;20386;-78
2021/04/12 11:59:21;;;;;;;9.55;5.40;;;;;;;7.32;100.00;102829.94;5222612;28;20055;-78
2021/04/12 12:02:01;;;;;;;12.48;7.35;;;;;;;7.30;100.00;102834.53;5222836;28;20059;-79
2021/04/12 12:04:34;;;;;;;11.82;7.90;;;;;;;7.26;100.00;102846.34;5225142;28;20421;-79
2021/04/12 12:07:18;;;;;;;10.95;5.22;;;;;;;7.24;100.00;102848.25;5229826;28;20047;-79
2021/04/12 12:09:55;;;;;;;10.07;5.00;;;;;;;6.89;100.00;102856.63;5216486;28;20029;-79
2021/04/12 12:12:34;;;;;;;4.28;3.30;;;;;;;6.40;100.00;102856.03;5229695;28;20051;-78
2021/04/12 12:15:19;;;;;;;6.72;3.58;;;;;;;6.10;100.00;102856.00;5231756;28;20108;-77
2021/04/12 12:18:04;;;;;;;5.30;3.50;;;;;;;5.80;100.00;102859.44;5228650;28;20110;-79
2021/04/12 12:20:46;;;;;;;5.55;3.72;;;;;;;5.64;100.00;102845.25;5225457;28;20111;-78
2021/04/12 12:23:38;;;;;;;5.43;3.95;;;;;;;5.43;100.00;102842.00;5227075;28;20029;-78
2021/04/12 12:26:23;;;;;;;7.20;4.75;;;;;;;5.46;100.00;102847.97;5231294;28;20017;-78
2021/04/12 12:29:17;;;;;;;7.05;4.75;;;;;;;5.78;100.00;102853.34;5230486;28;20068;-78
2021/04/12 12:32:02;;;;;;;9.52;5.50;;;;;;;6.02;100.00;102842.25;5230280;28;20026;-77
2021/04/12 12:35:01;;;;;;;7.75;5.15;;;;;;;6.43;100.00;102835.38;5231313;28;20044;-77
2021/04/12 12:37:54;;;;;;;9.77;5.35;;;;;;;6.51;100.00;102837.59;5230009;28;20036;-78
2021/04/12 12:40:29;;;;;;;7.85;5.35;;;;;;;6.57;100.00;102836.34;5226280;28;20029;-79
2021/04/12 12:43:05;;;;;;;12.25;7.97;;;;;;;6.65;100.00;102840.28;5226739;28;20025;-79
2021/04/12 12:45:39;;;;;;;8.68;5.88;;;;;;;6.99;100.00;102836.44;5226355;28;20033;-79
2021/04/12 12:48:19;;;;;;;10.88;6.03;;;;;;;7.30;100.00;102834.53;5226111;28;20017;-79
2021/04/12 12:51:03;;;;;;;9.32;5.55;;;;;;;7.56;100.00;102824.00;5226229;28;20419;-78